Terminal Aerodrome Forecast
Issued by NWS Sterling, VA

Home | Current Version | Previous Version | Text Only | Print | Product List | Glossary On
Versions: 1 2 3 4 5 6 7 8 9 10 11 12 13 14 15 16 17 18 19 20 21 22 23 24 25 26 27 28
000
FTUS41 KLWX 032320
TAFIAD
TAF
KIAD 032320Z 0400/0506 VRB03KT P6SM VCSH OVC050
     FM040200 VRB03KT 5SM -SHRA OVC050
     FM040600 VRB03KT 5SM -SHRA BR OVC015
     FM040900 VRB04KT 5SM -SHRA BR BKN008 OVC015
     FM041400 36005KT 5SM -SHRA OVC015
     FM041800 36004KT P6SM BKN025
     FM042300 01006KT P6SM BKN050=

USA.gov is the U.S. government's official web portal to all federal, state and local government web resources and services.